sensor_id;sensor_type;location;lat;lon;timestamp;pressure;altitude;pressure_sealevel;temperature;humidity
84865;BME280;75122;41.650;25.368;2024-03-25T00:01:24;96998.72;;;10.33;67.05
84865;BME280;75122;41.650;25.368;2024-03-25T00:03:50;97005.22;;;10.31;67.39
84865;BME280;75122;41.650;25.368;2024-03-25T00:06:16;96996.25;;;10.18;67.91
84865;BME280;75122;41.650;25.368;2024-03-25T00:08:41;96999.72;;;10.37;67.18
84865;BME280;75122;41.650;25.368;2024-03-25T00:11:07;96994.47;;;10.47;66.50
84865;BME280;75122;41.650;25.368;2024-03-25T00:13:33;96992.81;;;10.61;65.76
84865;BME280;75122;41.650;25.368;2024-03-25T00:15:58;96988.06;;;10.68;65.80
84865;BME280;75122;41.650;25.368;2024-03-25T00:18:23;96983.63;;;10.74;65.31
84865;BME280;75122;41.650;25.368;2024-03-25T00:20:49;96975.00;;;10.79;65.66
84865;BME280;75122;41.650;25.368;2024-03-25T00:23:14;96972.88;;;10.86;64.68
84865;BME280;75122;41.650;25.368;2024-03-25T00:25:40;96966.59;;;10.92;64.79
84865;BME280;75122;41.650;25.368;2024-03-25T00:28:06;96961.56;;;11.00;64.09
84865;BME280;75122;41.650;25.368;2024-03-25T00:30:31;96953.50;;;11.02;64.23
84865;BME280;75122;41.650;25.368;2024-03-25T00:32:56;96942.34;;;11.01;64.15
84865;BME280;75122;41.650;25.368;2024-03-25T00:35:22;96937.59;;;10.85;65.43
84865;BME280;75122;41.650;25.368;2024-03-25T00:37:48;96927.81;;;10.76;66.42
84865;BME280;75122;41.650;25.368;2024-03-25T00:40:14;96916.59;;;10.81;65.84
84865;BME280;75122;41.650;25.368;2024-03-25T00:42:39;96910.50;;;10.43;67.50
84865;BME280;75122;41.650;25.368;2024-03-25T00:45:05;96909.13;;;10.22;67.90
84865;BME280;75122;41.650;25.368;2024-03-25T00:47:32;96908.31;;;10.26;68.33
84865;BME280;75122;41.650;25.368;2024-03-25T00:49:58;96916.81;;;10.32;68.42
84865;BME280;75122;41.650;25.368;2024-03-25T00:52:23;96906.91;;;10.39;67.15
84865;BME280;75122;41.650;25.368;2024-03-25T00:54:48;96906.66;;;10.36;68.11
84865;BME280;75122;41.650;25.368;2024-03-25T00:57:14;96911.19;;;10.25;67.78
84865;BME280;75122;41.650;25.368;2024-03-25T00:59:39;96900.84;;;10.20;68.78
84865;BME280;75122;41.650;25.368;2024-03-25T01:02:05;96898.31;;;10.15;68.06
84865;BME280;75122;41.650;25.368;2024-03-25T01:04:30;96901.91;;;10.19;68.57
84865;BME280;75122;41.650;25.368;2024-03-25T01:06:56;96906.81;;;10.20;67.46
84865;BME280;75122;41.650;25.368;2024-03-25T01:09:21;96902.47;;;10.11;68.76
84865;BME280;75122;41.650;25.368;2024-03-25T01:11:47;96895.13;;;10.23;67.82
84865;BME280;75122;41.650;25.368;2024-03-25T01:14:13;96896.16;;;10.22;67.72
84865;BME280;75122;41.650;25.368;2024-03-25T01:16:38;96892.28;;;10.19;67.78
84865;BME280;75122;41.650;25.368;2024-03-25T01:19:04;96879.59;;;10.23;68.18
84865;BME280;75122;41.650;25.368;2024-03-25T01:21:29;96882.63;;;10.30;67.12
84865;BME280;75122;41.650;25.368;2024-03-25T01:23:55;96874.25;;;10.38;66.95
84865;BME280;75122;41.650;25.368;2024-03-25T01:26:21;96868.63;;;10.31;67.48
84865;BME280;75122;41.650;25.368;2024-03-25T01:28:47;96862.16;;;10.28;67.12
84865;BME280;75122;41.650;25.368;2024-03-25T01:31:13;96855.81;;;10.40;66.41
84865;BME280;75122;41.650;25.368;2024-03-25T01:33:39;96859.88;;;10.51;66.09
84865;BME280;75122;41.650;25.368;2024-03-25T01:36:04;96854.97;;;10.49;66.05
84865;BME280;75122;41.650;25.368;2024-03-25T01:38:30;96860.84;;;10.31;66.06
84865;BME280;75122;41.650;25.368;2024-03-25T01:41:07;96843.72;;;10.35;66.05
84865;BME280;75122;41.650;25.368;2024-03-25T01:43:32;96826.16;;;10.27;67.03
84865;BME280;75122;41.650;25.368;2024-03-25T01:45:58;96828.63;;;10.37;66.52
84865;BME280;75122;41.650;25.368;2024-03-25T01:48:23;96831.56;;;10.54;66.21
84865;BME280;75122;41.650;25.368;2024-03-25T01:50:49;96843.63;;;10.64;65.34
84865;BME280;75122;41.650;25.368;2024-03-25T01:53:15;96845.25;;;10.60;65.11
84865;BME280;75122;41.650;25.368;2024-03-25T01:55:41;96833.78;;;10.66;64.70
84865;BME280;75122;41.650;25.368;2024-03-25T01:58:07;96846.84;;;10.56;66.18
84865;BME280;75122;41.650;25.368;2024-03-25T02:00:33;96850.81;;;10.72;64.77
84865;BME280;75122;41.650;25.368;2024-03-25T02:02:59;96841.13;;;10.83;64.45
84865;BME280;75122;41.650;25.368;2024-03-25T02:05:24;96840.75;;;10.89;65.05
84865;BME280;75122;41.650;25.368;2024-03-25T02:07:51;96835.25;;;10.96;64.38
84865;BME280;75122;41.650;25.368;2024-03-25T02:10:17;96834.63;;;11.04;63.91
84865;BME280;75122;41.650;25.368;2024-03-25T02:12:44;96835.31;;;11.09;64.15
84865;BME280;75122;41.650;25.368;2024-03-25T02:15:11;96829.88;;;11.11;63.92
84865;BME280;75122;41.650;25.368;2024-03-25T02:17:37;96832.94;;;11.13;64.00
84865;BME280;75122;41.650;25.368;2024-03-25T02:20:03;96836.53;;;11.17;63.83
84865;BME280;75122;41.650;25.368;2024-03-25T02:22:33;96841.19;;;11.20;63.80
84865;BME280;75122;41.650;25.368;2024-03-25T02:25:05;96847.34;;;11.24;63.25
84865;BME280;75122;41.650;25.368;2024-03-25T02:27:31;96846.38;;;11.20;63.49
84865;BME280;75122;41.650;25.368;2024-03-25T02:30:10;96862.16;;;11.23;63.86
84865;BME280;75122;41.650;25.368;2024-03-25T02:32:39;96852.31;;;11.20;64.11
84865;BME280;75122;41.650;25.368;2024-03-25T02:35:13;96871.75;;;11.23;63.50
84865;BME280;75122;41.650;25.368;2024-03-25T02:37:41;96877.78;;;11.18;63.91
84865;BME280;75122;41.650;25.368;2024-03-25T02:40:08;96896.00;;;11.13;63.95
84865;BME280;75122;41.650;25.368;2024-03-25T02:42:37;96910.56;;;10.91;65.62
84865;BME280;75122;41.650;25.368;2024-03-25T02:45:05;96918.59;;;10.89;65.16
84865;BME280;75122;41.650;25.368;2024-03-25T02:47:31;96927.97;;;10.85;65.44
84865;BME280;75122;41.650;25.368;2024-03-25T02:49:56;96921.53;;;10.83;65.77
84865;BME280;75122;41.650;25.368;2024-03-25T02:52:22;96923.91;;;10.79;65.35
84865;BME280;75122;41.650;25.368;2024-03-25T02:54:47;96913.53;;;10.79;65.53
84865;BME280;75122;41.650;25.368;2024-03-25T02:57:13;96917.94;;;10.79;65.27
84865;BME280;75122;41.650;25.368;2024-03-25T02:59:38;96907.63;;;10.73;64.90
84865;BME280;75122;41.650;25.368;2024-03-25T03:02:04;96905.25;;;10.77;64.76
84865;BME280;75122;41.650;25.368;2024-03-25T03:04:29;96903.69;;;10.76;64.54
84865;BME280;75122;41.650;25.368;2024-03-25T03:06:56;96904.75;;;10.75;64.74
84865;BME280;75122;41.650;25.368;2024-03-25T03:09:21;96913.78;;;10.77;63.37
84865;BME280;75122;41.650;25.368;2024-03-25T03:11:47;96908.59;;;10.77;63.21
84865;BME280;75122;41.650;25.368;2024-03-25T03:14:12;96921.34;;;10.74;62.43
84865;BME280;75122;41.650;25.368;2024-03-25T03:16:37;96918.97;;;10.77;62.58
84865;BME280;75122;41.650;25.368;2024-03-25T03:19:03;96918.72;;;10.79;61.71
84865;BME280;75122;41.650;25.368;2024-03-25T03:21:28;96915.53;;;10.87;61.59
84865;BME280;75122;41.650;25.368;2024-03-25T03:23:55;96935.06;;;10.80;60.48
84865;BME280;75122;41.650;25.368;2024-03-25T03:26:21;96936.28;;;10.87;59.52
84865;BME280;75122;41.650;25.368;2024-03-25T03:28:46;96936.75;;;10.89;60.71
84865;BME280;75122;41.650;25.368;2024-03-25T03:31:12;96950.47;;;10.95;59.76
84865;BME280;75122;41.650;25.368;2024-03-25T03:33:37;96952.78;;;10.96;59.36
84865;BME280;75122;41.650;25.368;2024-03-25T03:36:03;96949.34;;;11.01;58.78
84865;BME280;75122;41.650;25.368;2024-03-25T03:38:28;96941.19;;;10.89;58.55
84865;BME280;75122;41.650;25.368;2024-03-25T03:41:01;96941.72;;;10.86;57.67
84865;BME280;75122;41.650;25.368;2024-03-25T03:43:27;96948.25;;;10.83;58.00
84865;BME280;75122;41.650;25.368;2024-03-25T03:45:52;96944.72;;;10.74;56.82
84865;BME280;75122;41.650;25.368;2024-03-25T03:48:18;96953.03;;;10.71;57.16
84865;BME280;75122;41.650;25.368;2024-03-25T03:50:44;96967.31;;;10.68;58.01
84865;BME280;75122;41.650;25.368;2024-03-25T03:53:09;96968.38;;;10.67;58.05
84865;BME280;75122;41.650;25.368;2024-03-25T03:55:35;96959.88;;;10.62;57.57
84865;BME280;75122;41.650;25.368;2024-03-25T03:58:01;96977.81;;;10.53;56.97
84865;BME280;75122;41.650;25.368;2024-03-25T04:00:27;96983.09;;;10.43;58.00
84865;BME280;75122;41.650;25.368;2024-03-25T04:02:52;96995.78;;;10.45;57.24
84865;BME280;75122;41.650;25.368;2024-03-25T04:05:18;97001.28;;;10.38;57.40
84865;BME280;75122;41.650;25.368;2024-03-25T04:07:44;96992.47;;;10.39;57.38
84865;BME280;75122;41.650;25.368;2024-03-25T04:10:10;96993.19;;;10.45;58.34
84865;BME280;75122;41.650;25.368;2024-03-25T04:12:36;97002.75;;;10.49;57.42
84865;BME280;75122;41.650;25.368;2024-03-25T04:15:02;97008.94;;;10.53;58.19
84865;BME280;75122;41.650;25.368;2024-03-25T04:17:28;97001.91;;;10.59;57.85
84865;BME280;75122;41.650;25.368;2024-03-25T04:19:53;97003.78;;;10.48;57.40
84865;BME280;75122;41.650;25.368;2024-03-25T04:22:19;97003.59;;;10.40;57.23
84865;BME280;75122;41.650;25.368;2024-03-25T04:24:44;97000.97;;;10.45;57.19
84865;BME280;75122;41.650;25.368;2024-03-25T04:27:10;97008.94;;;10.53;57.35
84865;BME280;75122;41.650;25.368;2024-03-25T04:29:35;97005.56;;;10.53;57.37
84865;BME280;75122;41.650;25.368;2024-03-25T04:32:01;97007.44;;;10.47;57.06
84865;BME280;75122;41.650;25.368;2024-03-25T04:34:28;97018.53;;;10.53;56.76
84865;BME280;75122;41.650;25.368;2024-03-25T04:36:55;97011.31;;;10.50;57.13
84865;BME280;75122;41.650;25.368;2024-03-25T04:39:20;97011.78;;;10.52;56.68
84865;BME280;75122;41.650;25.368;2024-03-25T04:41:45;97024.81;;;10.47;56.40
84865;BME280;75122;41.650;25.368;2024-03-25T04:44:11;97023.22;;;10.51;56.71
84865;BME280;75122;41.650;25.368;2024-03-25T04:46:37;97031.47;;;10.58;56.13
84865;BME280;75122;41.650;25.368;2024-03-25T04:49:05;97033.50;;;10.61;56.98
84865;BME280;75122;41.650;25.368;2024-03-25T04:51:30;97054.84;;;10.53;56.10
84865;BME280;75122;41.650;25.368;2024-03-25T04:53:57;97056.84;;;10.61;56.71
84865;BME280;75122;41.650;25.368;2024-03-25T04:56:22;97064.94;;;10.54;55.90
84865;BME280;75122;41.650;25.368;2024-03-25T04:58:48;97061.25;;;10.60;57.05
84865;BME280;75122;41.650;25.368;2024-03-25T05:01:13;97071.38;;;10.62;57.10
84865;BME280;75122;41.650;25.368;2024-03-25T05:03:39;97066.44;;;10.60;56.27
84865;BME280;75122;41.650;25.368;2024-03-25T05:06:04;97069.81;;;10.61;57.05
84865;BME280;75122;41.650;25.368;2024-03-25T05:08:30;97078.53;;;10.36;57.81
84865;BME280;75122;41.650;25.368;2024-03-25T05:10:56;97084.53;;;10.32;57.47
84865;BME280;75122;41.650;25.368;2024-03-25T05:13:21;97084.94;;;10.49;57.31
84865;BME280;75122;41.650;25.368;2024-03-25T05:15:50;97078.34;;;10.66;57.51
84865;BME280;75122;41.650;25.368;2024-03-25T05:18:17;97069.47;;;10.72;56.65
84865;BME280;75122;41.650;25.368;2024-03-25T05:20:42;97052.28;;;10.82;57.26
84865;BME280;75122;41.650;25.368;2024-03-25T05:23:08;97060.75;;;10.92;57.48
84865;BME280;75122;41.650;25.368;2024-03-25T05:25:34;97055.03;;;10.95;57.10
84865;BME280;75122;41.650;25.368;2024-03-25T05:28:00;97066.34;;;11.04;56.37
84865;BME280;75122;41.650;25.368;2024-03-25T05:30:25;97053.38;;;11.04;55.96
84865;BME280;75122;41.650;25.368;2024-03-25T05:32:51;97070.31;;;10.97;55.87
84865;BME280;75122;41.650;25.368;2024-03-25T05:35:16;97070.66;;;10.90;56.40
84865;BME280;75122;41.650;25.368;2024-03-25T05:37:41;97069.91;;;10.85;56.96
84865;BME280;75122;41.650;25.368;2024-03-25T05:40:07;97075.41;;;10.78;57.20
84865;BME280;75122;41.650;25.368;2024-03-25T05:42:37;97080.41;;;10.69;57.65
84865;BME280;75122;41.650;25.368;2024-03-25T05:45:02;97083.53;;;10.66;58.17
84865;BME280;75122;41.650;25.368;2024-03-25T05:47:28;97078.38;;;10.61;58.89
84865;BME280;75122;41.650;25.368;2024-03-25T05:49:53;97087.44;;;10.64;58.61
84865;BME280;75122;41.650;25.368;2024-03-25T05:52:18;97090.78;;;10.69;59.07
84865;BME280;75122;41.650;25.368;2024-03-25T05:54:44;97098.31;;;10.71;59.75
84865;BME280;75122;41.650;25.368;2024-03-25T05:57:09;97100.34;;;10.74;59.30
84865;BME280;75122;41.650;25.368;2024-03-25T05:59:35;97104.75;;;10.73;59.28
84865;BME280;75122;41.650;25.368;2024-03-25T06:02:00;97104.97;;;10.82;58.39
84865;BME280;75122;41.650;25.368;2024-03-25T06:04:25;97111.16;;;10.86;58.34
84865;BME280;75122;41.650;25.368;2024-03-25T06:06:51;97106.41;;;10.93;58.60
84865;BME280;75122;41.650;25.368;2024-03-25T06:09:16;97114.97;;;10.94;58.95
84865;BME280;75122;41.650;25.368;2024-03-25T06:11:42;97124.00;;;11.01;57.99
84865;BME280;75122;41.650;25.368;2024-03-25T06:14:07;97114.66;;;11.00;58.10
84865;BME280;75122;41.650;25.368;2024-03-25T06:16:33;97115.72;;;10.99;57.25
84865;BME280;75122;41.650;25.368;2024-03-25T06:18:58;97116.50;;;11.00;58.21
84865;BME280;75122;41.650;25.368;2024-03-25T06:21:24;97126.78;;;11.10;57.62
84865;BME280;75122;41.650;25.368;2024-03-25T06:23:49;97131.16;;;11.14;57.72
84865;BME280;75122;41.650;25.368;2024-03-25T06:26:15;97135.09;;;11.12;58.32
84865;BME280;75122;41.650;25.368;2024-03-25T06:28:40;97143.69;;;11.07;58.07
84865;BME280;75122;41.650;25.368;2024-03-25T06:31:05;97140.19;;;11.22;58.65
84865;BME280;75122;41.650;25.368;2024-03-25T06:33:49;97143.03;;;11.20;58.89
84865;BME280;75122;41.650;25.368;2024-03-25T06:36:33;97154.44;;;11.24;59.41
84865;BME280;75122;41.650;25.368;2024-03-25T06:39:00;97158.63;;;11.20;59.16
84865;BME280;75122;41.650;25.368;2024-03-25T06:41:26;97162.81;;;11.16;59.48
84865;BME280;75122;41.650;25.368;2024-03-25T06:43:52;97157.38;;;11.13;60.63
84865;BME280;75122;41.650;25.368;2024-03-25T06:46:17;97168.31;;;11.10;60.14
84865;BME280;75122;41.650;25.368;2024-03-25T06:48:42;97178.38;;;11.16;60.33
84865;BME280;75122;41.650;25.368;2024-03-25T06:51:08;97179.72;;;11.14;61.97
84865;BME280;75122;41.650;25.368;2024-03-25T06:53:33;97182.69;;;10.97;61.59
84865;BME280;75122;41.650;25.368;2024-03-25T06:55:59;97179.66;;;10.85;61.28
84865;BME280;75122;41.650;25.368;2024-03-25T06:58:26;97170.38;;;10.79;61.77
84865;BME280;75122;41.650;25.368;2024-03-25T07:00:53;97177.06;;;10.80;61.58
84865;BME280;75122;41.650;25.368;2024-03-25T07:03:20;97167.81;;;10.69;60.48
84865;BME280;75122;41.650;25.368;2024-03-25T07:05:46;97166.75;;;10.75;63.94
84865;BME280;75122;41.650;25.368;2024-03-25T07:08:13;97168.25;;;10.81;61.35
84865;BME280;75122;41.650;25.368;2024-03-25T07:10:48;97180.44;;;10.81;61.75
84865;BME280;75122;41.650;25.368;2024-03-25T07:17:08;97181.66;;;9.65;69.99
84865;BME280;75122;41.650;25.368;2024-03-25T07:19:34;97174.66;;;9.65;68.68
84865;BME280;75122;41.650;25.368;2024-03-25T07:22:00;97178.81;;;9.66;68.89
84865;BME280;75122;41.650;25.368;2024-03-25T07:24:25;97186.59;;;9.66;68.11
84865;BME280;75122;41.650;25.368;2024-03-25T07:26:51;97196.16;;;9.56;69.82
84865;BME280;75122;41.650;25.368;2024-03-25T07:29:16;97194.63;;;9.50;68.17
84865;BME280;75122;41.650;25.368;2024-03-25T07:31:41;97195.91;;;9.47;69.85
84865;BME280;75122;41.650;25.368;2024-03-25T07:34:07;97200.31;;;9.42;70.81
84865;BME280;75122;41.650;25.368;2024-03-25T07:36:32;97202.13;;;9.61;71.52
84865;BME280;75122;41.650;25.368;2024-03-25T07:39:00;97207.03;;;9.68;66.94
84865;BME280;75122;41.650;25.368;2024-03-25T07:41:25;97204.34;;;10.03;65.42
84865;BME280;75122;41.650;25.368;2024-03-25T07:43:51;97196.53;;;10.34;67.78
84865;BME280;75122;41.650;25.368;2024-03-25T07:46:16;97212.78;;;10.49;65.78
84865;BME280;75122;41.650;25.368;2024-03-25T07:48:42;97217.50;;;10.91;67.56
84865;BME280;75122;41.650;25.368;2024-03-25T07:51:07;97214.88;;;11.35;55.69
84865;BME280;75122;41.650;25.368;2024-03-25T07:53:32;97189.78;;;11.54;55.62
84865;BME280;75122;41.650;25.368;2024-03-25T07:55:58;97193.25;;;11.74;55.50
84865;BME280;75122;41.650;25.368;2024-03-25T07:58:24;97198.84;;;11.86;58.71
84865;BME280;75122;41.650;25.368;2024-03-25T08:00:49;97196.94;;;11.96;53.72
84865;BME280;75122;41.650;25.368;2024-03-25T08:03:15;97196.59;;;12.03;53.23
84865;BME280;75122;41.650;25.368;2024-03-25T08:05:40;97202.44;;;12.13;52.01
84865;BME280;75122;41.650;25.368;2024-03-25T08:08:06;97216.44;;;12.18;47.57
84865;BME280;75122;41.650;25.368;2024-03-25T08:10:31;97213.59;;;12.19;46.62
84865;BME280;75122;41.650;25.368;2024-03-25T08:12:57;97218.28;;;12.17;46.41
84865;BME280;75122;41.650;25.368;2024-03-25T08:15:22;97207.13;;;12.17;45.40
84865;BME280;75122;41.650;25.368;2024-03-25T08:17:47;97202.78;;;12.31;46.11
84865;BME280;75122;41.650;25.368;2024-03-25T08:20:13;97194.38;;;12.39;46.90
84865;BME280;75122;41.650;25.368;2024-03-25T08:22:39;97195.88;;;12.45;44.48
84865;BME280;75122;41.650;25.368;2024-03-25T08:25:04;97208.88;;;12.45;44.99
84865;BME280;75122;41.650;25.368;2024-03-25T08:27:30;97209.09;;;12.48;45.00
84865;BME280;75122;41.650;25.368;2024-03-25T08:29:56;97208.16;;;12.39;45.39
84865;BME280;75122;41.650;25.368;2024-03-25T08:32:21;97207.53;;;12.47;44.54
84865;BME280;75122;41.650;25.368;2024-03-25T08:34:46;97229.34;;;12.51;44.05
84865;BME280;75122;41.650;25.368;2024-03-25T08:37:12;97237.03;;;12.38;44.33
84865;BME280;75122;41.650;25.368;2024-03-25T08:39:37;97237.09;;;12.33;43.21
84865;BME280;75122;41.650;25.368;2024-03-25T08:42:03;97244.81;;;12.38;44.10
84865;BME280;75122;41.650;25.368;2024-03-25T08:44:28;97245.38;;;12.35;43.91
84865;BME280;75122;41.650;25.368;2024-03-25T08:46:54;97243.50;;;12.40;43.67
84865;BME280;75122;41.650;25.368;2024-03-25T08:49:19;97234.94;;;12.40;43.56
84865;BME280;75122;41.650;25.368;2024-03-25T08:51:45;97238.75;;;12.47;42.92
84865;BME280;75122;41.650;25.368;2024-03-25T08:54:11;97234.25;;;12.53;41.37
84865;BME280;75122;41.650;25.368;2024-03-25T08:56:36;97244.63;;;12.34;41.61
84865;BME280;75122;41.650;25.368;2024-03-25T08:59:02;97234.38;;;12.43;40.82
84865;BME280;75122;41.650;25.368;2024-03-25T09:01:28;97246.06;;;12.45;40.96
84865;BME280;75122;41.650;25.368;2024-03-25T09:03:54;97248.03;;;12.30;39.98
84865;BME280;75122;41.650;25.368;2024-03-25T09:06:19;97245.06;;;12.41;41.92
84865;BME280;75122;41.650;25.368;2024-03-25T09:08:44;97246.28;;;12.49;40.83
84865;BME280;75122;41.650;25.368;2024-03-25T09:11:28;97243.28;;;12.60;40.51
84865;BME280;75122;41.650;25.368;2024-03-25T09:13:54;97244.69;;;12.72;39.88
84865;BME280;75122;41.650;25.368;2024-03-25T09:16:19;97253.59;;;12.89;40.47
84865;BME280;75122;41.650;25.368;2024-03-25T09:18:45;97251.66;;;12.95;39.27
84865;BME280;75122;41.650;25.368;2024-03-25T09:21:10;97245.22;;;13.11;38.95
84865;BME280;75122;41.650;25.368;2024-03-25T09:23:36;97260.41;;;13.23;37.62
84865;BME280;75122;41.650;25.368;2024-03-25T09:26:04;97255.34;;;13.31;37.07
84865;BME280;75122;41.650;25.368;2024-03-25T09:28:30;97263.09;;;13.36;37.78
84865;BME280;75122;41.650;25.368;2024-03-25T09:30:55;97262.81;;;13.38;37.65
84865;BME280;75122;41.650;25.368;2024-03-25T09:33:21;97253.97;;;13.20;36.67
84865;BME280;75122;41.650;25.368;2024-03-25T09:35:47;97256.56;;;13.20;36.29
84865;BME280;75122;41.650;25.368;2024-03-25T09:38:12;97251.22;;;13.12;35.54
84865;BME280;75122;41.650;25.368;2024-03-25T09:40:41;97261.91;;;13.29;37.44
84865;BME280;75122;41.650;25.368;2024-03-25T09:43:31;97256.59;;;13.52;35.65
84865;BME280;75122;41.650;25.368;2024-03-25T09:45:57;97257.19;;;13.63;35.81
84865;BME280;75122;41.650;25.368;2024-03-25T09:48:24;97255.34;;;13.50;34.74
84865;BME280;75122;41.650;25.368;2024-03-25T09:50:50;97258.75;;;13.64;33.53
84865;BME280;75122;41.650;25.368;2024-03-25T09:53:17;97267.47;;;13.73;33.78
84865;BME280;75122;41.650;25.368;2024-03-25T09:55:46;97270.22;;;13.82;33.69
84865;BME280;75122;41.650;25.368;2024-03-25T09:58:13;97276.66;;;13.84;33.05
84865;BME280;75122;41.650;25.368;2024-03-25T10:00:39;97275.22;;;13.78;32.34
84865;BME280;75122;41.650;25.368;2024-03-25T10:03:05;97259.59;;;13.78;32.54
84865;BME280;75122;41.650;25.368;2024-03-25T10:05:31;97261.69;;;13.76;32.53
84865;BME280;75122;41.650;25.368;2024-03-25T10:07:58;97276.03;;;13.60;32.60
84865;BME280;75122;41.650;25.368;2024-03-25T10:10:23;97268.84;;;13.71;31.82
84865;BME280;75122;41.650;25.368;2024-03-25T10:12:49;97263.31;;;13.72;32.47
84865;BME280;75122;41.650;25.368;2024-03-25T10:15:17;97273.44;;;14.20;32.89
84865;BME280;75122;41.650;25.368;2024-03-25T10:17:43;97262.84;;;14.71;30.44
84865;BME280;75122;41.650;25.368;2024-03-25T10:20:18;97279.50;;;15.11;29.55
84865;BME280;75122;41.650;25.368;2024-03-25T10:22:44;97274.47;;;15.14;29.14
84865;BME280;75122;41.650;25.368;2024-03-25T10:25:30;97288.72;;;15.44;30.84
84865;BME280;75122;41.650;25.368;2024-03-25T10:28:00;97281.44;;;15.55;29.96
84865;BME280;75122;41.650;25.368;2024-03-25T10:30:26;97275.50;;;15.49;29.83
84865;BME280;75122;41.650;25.368;2024-03-25T10:33:03;97285.59;;;15.56;30.56
84865;BME280;75122;41.650;25.368;2024-03-25T10:35:30;97284.97;;;15.36;27.56
84865;BME280;75122;41.650;25.368;2024-03-25T10:37:59;97293.78;;;15.49;28.35
84865;BME280;75122;41.650;25.368;2024-03-25T10:40:29;97296.56;;;15.66;28.55
84865;BME280;75122;41.650;25.368;2024-03-25T10:45:30;97288.31;;;15.51;28.28
84865;BME280;75122;41.650;25.368;2024-03-25T10:48:21;97304.69;;;15.07;28.05
84865;BME280;75122;41.650;25.368;2024-03-25T10:50:51;97302.47;;;15.00;28.54
84865;BME280;75122;41.650;25.368;2024-03-25T10:53:18;97304.06;;;15.23;29.24
84865;BME280;75122;41.650;25.368;2024-03-25T10:55:47;97299.50;;;15.65;27.59
84865;BME280;75122;41.650;25.368;2024-03-25T10:58:16;97304.88;;;15.91;27.09
84865;BME280;75122;41.650;25.368;2024-03-25T11:00:43;97296.94;;;16.35;25.28
84865;BME280;75122;41.650;25.368;2024-03-25T11:03:09;97309.31;;;16.74;25.64
84865;BME280;75122;41.650;25.368;2024-03-25T11:05:35;97312.28;;;17.07;26.18
84865;BME280;75122;41.650;25.368;2024-03-25T11:08:14;97316.00;;;17.06;23.66
84865;BME280;75122;41.650;25.368;2024-03-25T11:10:44;97305.38;;;17.37;24.51
84865;BME280;75122;41.650;25.368;2024-03-25T11:13:14;97321.00;;;17.59;23.37
84865;BME280;75122;41.650;25.368;2024-03-25T11:15:44;97313.72;;;17.73;24.15
84865;BME280;75122;41.650;25.368;2024-03-25T11:18:17;97312.63;;;17.48;23.88
84865;BME280;75122;41.650;25.368;2024-03-25T11:20:44;97311.06;;;17.56;25.83
84865;BME280;75122;41.650;25.368;2024-03-25T11:23:11;97307.56;;;17.69;24.29
84865;BME280;75122;41.650;25.368;2024-03-25T11:25:37;97310.31;;;17.81;24.80
84865;BME280;75122;41.650;25.368;2024-03-25T11:28:03;97302.13;;;17.57;23.41
84865;BME280;75122;41.650;25.368;2024-03-25T11:30:29;97313.56;;;17.78;23.89
84865;BME280;75122;41.650;25.368;2024-03-25T11:32:57;97314.34;;;17.79;23.67
84865;BME280;75122;41.650;25.368;2024-03-25T11:35:24;97324.78;;;18.04;24.91
84865;BME280;75122;41.650;25.368;2024-03-25T11:37:50;97321.63;;;18.28;23.93
84865;BME280;75122;41.650;25.368;2024-03-25T11:40:17;97327.38;;;18.13;24.45
84865;BME280;75122;41.650;25.368;2024-03-25T11:42:43;97333.94;;;18.53;23.28
84865;BME280;75122;41.650;25.368;2024-03-25T11:45:16;97320.63;;;18.58;24.10
84865;BME280;75122;41.650;25.368;2024-03-25T11:47:43;97334.88;;;18.87;23.33
84865;BME280;75122;41.650;25.368;2024-03-25T11:50:12;97331.88;;;18.68;22.38
84865;BME280;75122;41.650;25.368;2024-03-25T11:52:38;97348.53;;;19.01;22.80
84865;BME280;75122;41.650;25.368;2024-03-25T11:55:03;97340.88;;;19.17;22.84
84865;BME280;75122;41.650;25.368;2024-03-25T11:57:29;97347.16;;;19.03;21.91
84865;BME280;75122;41.650;25.368;2024-03-25T11:59:54;97338.06;;;19.22;21.73
84865;BME280;75122;41.650;25.368;2024-03-25T12:02:20;97352.03;;;19.34;21.56
84865;BME280;75122;41.650;25.368;2024-03-25T12:04:47;97342.69;;;19.25;20.84
84865;BME280;75122;41.650;25.368;2024-03-25T12:07:13;97341.63;;;19.17;20.67
84865;BME280;75122;41.650;25.368;2024-03-25T12:09:39;97344.78;;;19.10;20.12
84865;BME280;75122;41.650;25.368;2024-03-25T12:12:23;97368.44;;;18.81;21.59
84865;BME280;75122;41.650;25.368;2024-03-25T12:14:49;97355.75;;;18.83;21.73
84865;BME280;75122;41.650;25.368;2024-03-25T12:17:15;97364.13;;;19.06;21.61
84865;BME280;75122;41.650;25.368;2024-03-25T12:19:41;97370.88;;;18.86;20.28
84865;BME280;75122;41.650;25.368;2024-03-25T12:22:07;97368.16;;;18.74;21.20
84865;BME280;75122;41.650;25.368;2024-03-25T12:24:33;97381.06;;;18.96;23.00
84865;BME280;75122;41.650;25.368;2024-03-25T12:26:59;97387.66;;;19.02;22.00
84865;BME280;75122;41.650;25.368;2024-03-25T12:29:26;97376.88;;;18.95;22.23
84865;BME280;75122;41.650;25.368;2024-03-25T12:31:55;97377.31;;;18.68;23.18
84865;BME280;75122;41.650;25.368;2024-03-25T12:34:20;97397.16;;;18.40;21.29
84865;BME280;75122;41.650;25.368;2024-03-25T12:36:48;97400.22;;;18.42;21.97
84865;BME280;75122;41.650;25.368;2024-03-25T12:39:17;97392.38;;;18.16;23.02
84865;BME280;75122;41.650;25.368;2024-03-25T12:41:44;97388.97;;;18.24;22.48
84865;BME280;75122;41.650;25.368;2024-03-25T12:44:12;97400.25;;;18.16;22.70
84865;BME280;75122;41.650;25.368;2024-03-25T12:46:38;97395.66;;;17.70;20.80
84865;BME280;75122;41.650;25.368;2024-03-25T12:49:04;97389.47;;;17.92;20.72
84865;BME280;75122;41.650;25.368;2024-03-25T12:51:30;97394.41;;;18.28;21.10
84865;BME280;75122;41.650;25.368;2024-03-25T12:53:56;97405.94;;;18.52;20.87